createdAt,value
2022-09-15T00:01:28.462Z,14.30
2022-09-15T00:03:55.439Z,14.20
2022-09-15T00:06:22.377Z,14.30
2022-09-15T00:08:49.435Z,14.10
2022-09-15T00:11:31.649Z,14.10
2022-09-15T00:18:34.200Z,14.10
2022-09-15T00:21:05.716Z,14.10
2022-09-15T00:23:32.441Z,14.10
2022-09-15T00:25:59.572Z,14.10
2022-09-15T00:28:26.457Z,14.10
2022-09-15T00:30:55.260Z,14.10
2022-09-15T00:33:22.581Z,13.60
2022-09-15T00:40:56.008Z,14.10
2022-09-15T00:43:45.130Z,14.00
2022-09-15T00:46:13.980Z,14.00
2022-09-15T00:49:06.540Z,13.90
2022-09-15T00:52:03.055Z,13.80
2022-09-15T00:54:37.860Z,13.80
2022-09-15T00:57:11.579Z,13.70
2022-09-15T01:04:48.499Z,13.60
2022-09-15T01:07:19.659Z,13.60
2022-09-15T01:09:58.455Z,13.60
2022-09-15T01:12:26.766Z,13.50
2022-09-15T01:14:54.302Z,13.50
2022-09-15T01:17:36.949Z,13.50
2022-09-15T01:20:19.033Z,13.50
2022-09-15T01:28:25.784Z,13.50
2022-09-15T01:31:23.699Z,13.50
2022-09-15T01:34:16.385Z,13.60
2022-09-15T01:36:59.812Z,13.60
2022-09-15T01:39:36.919Z,13.60
2022-09-15T01:42:09.319Z,13.60
2022-09-15T01:47:39.259Z,13.60
2022-09-15T01:50:15.262Z,13.60
2022-09-15T01:52:48.674Z,13.70
2022-09-15T01:55:25.968Z,13.70
2022-09-15T01:57:52.821Z,13.70
2022-09-15T02:00:19.602Z,13.70
2022-09-15T02:02:56.527Z,13.70
2022-09-15T02:08:19.702Z,14.90
2022-09-15T02:10:57.139Z,8.70
2022-09-15T02:14:03.581Z,14.90
2022-09-15T02:16:34.739Z,13.60
2022-09-15T02:19:32.754Z,13.70
2022-09-15T02:22:24.245Z,12.90
2022-09-15T02:30:22.023Z,13.20
2022-09-15T02:32:57.424Z,13.60
2022-09-15T02:35:28.283Z,13.50
2022-09-15T02:37:55.763Z,13.50
2022-09-15T02:40:22.856Z,13.50
2022-09-15T02:43:00.614Z,13.50
2022-09-15T02:45:30.567Z,13.40
2022-09-15T02:51:49.601Z,13.40
2022-09-15T02:54:16.531Z,13.30
2022-09-15T02:56:43.305Z,13.20
2022-09-15T02:59:10.584Z,13.20
2022-09-15T03:01:41.686Z,13.10
2022-09-15T03:04:08.526Z,13.10
2022-09-15T03:06:35.520Z,13.00
2022-09-15T03:11:45.280Z,13.60
2022-09-15T03:14:12.286Z,12.80
2022-09-15T03:16:39.584Z,13.20
2022-09-15T03:19:06.435Z,12.70
2022-09-15T03:21:33.326Z,12.70
2022-09-15T03:24:00.247Z,12.70
2022-09-15T03:26:27.156Z,12.90
2022-09-15T03:32:13.100Z,12.60
2022-09-15T03:34:40.436Z,12.50
2022-09-15T03:37:07.573Z,12.50
2022-09-15T03:39:34.700Z,12.90
2022-09-15T03:42:01.426Z,12.30
2022-09-15T03:44:28.267Z,12.30
2022-09-15T03:46:55.187Z,12.30
2022-09-15T03:54:26.912Z,12.20
2022-09-15T03:56:53.659Z,12.20
2022-09-15T03:59:21.658Z,12.20
2022-09-15T04:01:49.835Z,12.20
2022-09-15T04:04:17.088Z,12.20
2022-09-15T04:06:44.680Z,10.80
2022-09-15T04:09:11.979Z,12.40
2022-09-15T04:16:40.020Z,11.20
2022-09-15T04:19:07.047Z,12.40
2022-09-15T04:21:34.395Z,12.20
2022-09-15T04:24:03.980Z,12.10
2022-09-15T04:26:33.176Z,12.30
2022-09-15T04:29:04.283Z,12.00
2022-09-15T04:31:33.136Z,13.30
2022-09-15T04:38:53.221Z,12.00
2022-09-15T04:41:20.549Z,12.00
2022-09-15T04:43:47.673Z,11.90
2022-09-15T04:48:43.456Z,11.90
2022-09-15T04:51:13.407Z,11.90
2022-09-15T04:53:41.330Z,12.00
2022-09-15T04:56:18.067Z,12.00
2022-09-15T05:03:38.020Z,10.60
2022-09-15T05:06:11.245Z,12.20
2022-09-15T05:11:11.651Z,12.30
2022-09-15T05:13:39.729Z,12.30
2022-09-15T05:16:19.570Z,12.30
2022-09-15T05:18:48.002Z,12.30
2022-09-15T05:26:42.848Z,12.30
2022-09-15T05:29:10.069Z,12.30
2022-09-15T05:31:37.027Z,12.30
2022-09-15T05:34:05.641Z,12.30
2022-09-15T05:36:33.079Z,12.30
2022-09-15T05:39:01.217Z,12.30
2022-09-15T05:41:28.939Z,12.30
2022-09-15T05:48:12.256Z,12.30
2022-09-15T05:50:47.770Z,12.30
2022-09-15T05:53:15.344Z,12.80
2022-09-15T05:55:42.139Z,12.40
2022-09-15T05:58:09.182Z,12.40
2022-09-15T06:00:36.615Z,12.40
2022-09-15T06:03:04.087Z,12.40
2022-09-15T06:10:38.141Z,14.00
2022-09-15T06:13:05.980Z,12.80
2022-09-15T06:15:33.563Z,12.80
2022-09-15T06:18:00.534Z,8.10
2022-09-15T06:20:27.137Z,11.70
2022-09-15T06:25:23.213Z,12.80
2022-09-15T06:32:06.348Z,12.70
2022-09-15T06:34:33.458Z,12.80
2022-09-15T06:37:00.882Z,12.80
2022-09-15T06:39:28.341Z,12.90
2022-09-15T06:42:04.195Z,14.50
2022-09-15T06:44:34.301Z,13.20
2022-09-15T06:47:01.645Z,13.30
2022-09-15T06:52:19.541Z,13.40
2022-09-15T06:54:46.740Z,13.50
2022-09-15T06:57:13.809Z,13.60
2022-09-15T06:59:40.851Z,13.70
2022-09-15T07:02:09.482Z,13.90
2022-09-15T07:07:03.844Z,14.20
2022-09-15T07:13:32.291Z,13.90
2022-09-15T07:16:04.675Z,14.40
2022-09-15T07:18:33.262Z,14.90
2022-09-15T07:21:07.287Z,15.00
2022-09-15T07:23:34.796Z,15.40
2022-09-15T07:26:11.455Z,15.70
2022-09-15T07:31:23.030Z,16.10
2022-09-15T07:33:50.157Z,16.10
2022-09-15T07:36:17.851Z,16.10
2022-09-15T07:38:47.751Z,16.20
2022-09-15T07:41:15.867Z,16.40
2022-09-15T07:43:51.178Z,16.60
2022-09-15T07:46:21.741Z,16.90
2022-09-15T07:53:17.710Z,17.70
2022-09-15T07:55:44.717Z,18.30
2022-09-15T07:58:12.146Z,18.60
2022-09-15T08:00:39.115Z,19.00
2022-09-15T08:03:06.441Z,19.30
2022-09-15T08:05:37.748Z,19.50
2022-09-15T08:08:05.665Z,19.40
2022-09-15T08:15:29.041Z,22.60
2022-09-15T08:17:55.686Z,22.70
2022-09-15T08:20:22.915Z,19.30
2022-09-15T08:22:50.104Z,19.20
2022-09-15T08:25:16.953Z,19.20
2022-09-15T08:27:44.125Z,19.30
2022-09-15T08:30:11.434Z,19.60
2022-09-15T08:37:42.825Z,20.10
2022-09-15T08:40:20.689Z,20.70
2022-09-15T08:42:52.143Z,21.00
2022-09-15T08:45:29.627Z,21.30
2022-09-15T08:48:01.062Z,21.30
2022-09-15T08:50:35.401Z,21.60
2022-09-15T08:53:18.231Z,21.60
2022-09-15T08:58:34.427Z,21.60
2022-09-15T09:01:15.893Z,21.10
2022-09-15T09:04:07.644Z,20.50
2022-09-15T09:06:49.746Z,20.30
2022-09-15T09:09:41.312Z,20.20
2022-09-15T09:12:36.773Z,20.00
2022-09-15T09:15:40.354Z,19.70
2022-09-15T09:21:44.289Z,20.50
2022-09-15T09:24:30.840Z,20.80
2022-09-15T09:26:59.917Z,21.00
2022-09-15T09:29:39.081Z,21.30
2022-09-15T09:32:53.917Z,21.80
2022-09-15T09:35:44.514Z,22.00
2022-09-15T09:43:23.512Z,23.00
2022-09-15T09:45:51.155Z,23.40
2022-09-15T09:48:20.845Z,23.10
2022-09-15T09:50:49.299Z,23.10
2022-09-15T09:53:23.391Z,22.60
2022-09-15T09:55:52.663Z,22.10
2022-09-15T09:58:22.495Z,21.60
2022-09-15T10:05:34.103Z,21.40
2022-09-15T10:08:02.473Z,22.30
2022-09-15T10:10:32.733Z,22.50
2022-09-15T10:13:04.683Z,23.00
2022-09-15T10:15:35.417Z,23.00
2022-09-15T10:18:04.105Z,22.90
2022-09-15T10:20:50.479Z,22.20
2022-09-15T10:25:59.562Z,22.20
2022-09-15T10:28:27.481Z,22.40
2022-09-15T10:31:28.378Z,22.70
2022-09-15T10:33:55.145Z,23.30
2022-09-15T10:36:29.819Z,24.00
2022-09-15T10:39:32.141Z,24.40
2022-09-15T10:45:02.740Z,24.30
2022-09-15T10:48:02.619Z,23.70
2022-09-15T10:50:56.158Z,23.30
2022-09-15T10:53:22.887Z,23.10
2022-09-15T10:56:22.128Z,22.80
2022-09-15T10:59:15.395Z,21.80
2022-09-15T11:07:28.862Z,20.50
2022-09-15T11:10:14.261Z,19.40
2022-09-15T11:12:56.406Z,18.40
2022-09-15T11:15:29.793Z,17.90
2022-09-15T11:18:26.640Z,18.00
2022-09-15T11:21:14.274Z,18.40
2022-09-15T11:26:49.357Z,18.50
2022-09-15T11:29:54.324Z,18.10
2022-09-15T11:32:27.349Z,17.70
2022-09-15T11:35:37.742Z,17.40
2022-09-15T11:38:17.571Z,17.40
2022-09-15T11:40:55.141Z,17.70
2022-09-15T11:48:47.571Z,18.10
2022-09-15T11:51:19.613Z,18.10
2022-09-15T11:54:16.254Z,18.20
2022-09-15T11:56:47.745Z,18.20
2022-09-15T11:59:53.928Z,18.40
2022-09-15T12:02:40.128Z,18.80
2022-09-15T12:10:43.371Z,21.00
2022-09-15T12:13:20.550Z,20.60
2022-09-15T12:15:49.370Z,20.90
2022-09-15T12:18:43.756Z,21.30
2022-09-15T12:21:33.612Z,21.40
2022-09-15T12:24:17.346Z,21.40
2022-09-15T12:32:18.877Z,20.90
2022-09-15T12:35:04.804Z,20.20
2022-09-15T12:37:41.172Z,20.10
2022-09-15T12:40:29.840Z,19.90
2022-09-15T12:42:57.520Z,20.40
2022-09-15T12:45:28.674Z,20.00
2022-09-15T12:54:08.422Z,19.80
2022-09-15T12:56:35.340Z,19.60
2022-09-15T12:59:07.467Z,19.50
2022-09-15T13:01:49.481Z,19.60
2022-09-15T13:04:25.373Z,19.70
2022-09-15T13:07:17.958Z,19.80
2022-09-15T13:10:04.788Z,19.70
2022-09-15T13:17:33.827Z,19.00
2022-09-15T13:20:11.169Z,18.70
2022-09-15T13:22:44.795Z,18.60
2022-09-15T13:25:14.094Z,18.50
2022-09-15T13:28:08.275Z,18.40
2022-09-15T13:30:51.904Z,18.40
2022-09-15T13:40:34.803Z,18.30
2022-09-15T13:43:45.244Z,18.10
2022-09-15T13:46:30.706Z,18.00
2022-09-15T13:49:35.501Z,18.00
2022-09-15T13:52:15.040Z,18.00
2022-09-15T14:00:48.689Z,17.40
2022-09-15T14:03:23.339Z,17.70
2022-09-15T14:05:51.256Z,17.70
2022-09-15T14:08:26.057Z,17.90
2022-09-15T14:10:58.189Z,18.10
2022-09-15T14:13:27.861Z,19.20
2022-09-15T14:20:25.409Z,18.20
2022-09-15T14:22:52.802Z,18.10
2022-09-15T14:25:20.359Z,18.10
2022-09-15T14:27:52.738Z,18.10
2022-09-15T14:30:30.661Z,18.00
2022-09-15T14:33:01.722Z,18.10
2022-09-15T14:35:37.490Z,18.10
2022-09-15T14:43:40.597Z,18.20
2022-09-15T14:46:13.046Z,18.00
2022-09-15T14:48:40.274Z,18.00
2022-09-15T14:51:32.655Z,18.00
2022-09-15T14:54:00.970Z,17.90
2022-09-15T14:56:34.397Z,17.90
2022-09-15T14:59:07.312Z,17.80
2022-09-15T15:07:25.856Z,17.80
2022-09-15T15:10:03.040Z,17.40
2022-09-15T15:12:41.526Z,17.10
2022-09-15T15:15:12.132Z,16.90
2022-09-15T15:17:50.509Z,16.80
2022-09-15T15:20:26.813Z,16.80
2022-09-15T15:23:12.855Z,16.70
2022-09-15T15:29:53.115Z,16.20
2022-09-15T15:32:22.056Z,16.90
2022-09-15T15:34:55.425Z,17.00
2022-09-15T15:37:27.264Z,17.00
2022-09-15T15:39:56.683Z,17.00
2022-09-15T15:42:24.219Z,17.00
2022-09-15T15:45:04.655Z,16.90
2022-09-15T15:52:37.075Z,17.00
2022-09-15T15:55:04.888Z,17.10
2022-09-15T15:57:41.190Z,17.10
2022-09-15T16:00:28.505Z,17.00
2022-09-15T16:02:55.385Z,17.00
2022-09-15T16:05:27.282Z,17.00
2022-09-15T16:08:00.405Z,18.20
2022-09-15T16:15:36.252Z,16.70
2022-09-15T16:18:03.672Z,16.80
2022-09-15T16:20:30.677Z,16.60
2022-09-15T16:22:57.580Z,16.50
2022-09-15T16:25:32.484Z,16.40
2022-09-15T16:28:00.086Z,16.30
2022-09-15T16:30:27.248Z,16.30
2022-09-15T16:37:33.655Z,16.10
2022-09-15T16:40:00.703Z,16.00
2022-09-15T16:42:27.751Z,16.00
2022-09-15T16:44:54.815Z,16.00
2022-09-15T16:47:22.101Z,15.90
2022-09-15T16:49:50.984Z,15.90
2022-09-15T16:52:17.957Z,15.80
2022-09-15T16:57:31.588Z,15.70
2022-09-15T16:59:58.733Z,15.60
2022-09-15T17:02:26.037Z,15.50
2022-09-15T17:04:53.350Z,15.50
2022-09-15T17:07:20.917Z,15.30
2022-09-15T17:09:49.340Z,15.30
2022-09-15T17:12:16.180Z,15.20
2022-09-15T17:17:28.350Z,15.10
2022-09-15T17:19:55.810Z,15.00
2022-09-15T17:22:22.731Z,15.00
2022-09-15T17:24:49.543Z,14.90
2022-09-15T17:27:16.284Z,14.90
2022-09-15T17:29:43.693Z,14.80
2022-09-15T17:32:10.333Z,14.80
2022-09-15T17:40:04.872Z,14.60
2022-09-15T17:42:31.711Z,14.60
2022-09-15T17:44:58.511Z,14.50
2022-09-15T17:47:25.596Z,14.50
2022-09-15T17:49:52.176Z,14.50
2022-09-15T17:52:19.266Z,14.40
2022-09-15T17:54:46.098Z,14.40
2022-09-15T18:00:35.221Z,14.20
2022-09-15T18:03:10.648Z,14.20
2022-09-15T18:05:38.884Z,14.10
2022-09-15T18:08:06.079Z,14.10
2022-09-15T18:10:34.961Z,14.10
2022-09-15T18:13:04.768Z,14.00
2022-09-15T18:15:34.588Z,9.80
2022-09-15T18:24:27.995Z,13.90
2022-09-15T18:26:55.505Z,13.90
2022-09-15T18:29:22.333Z,13.90
2022-09-15T18:31:49.124Z,13.80
2022-09-15T18:34:15.945Z,13.80
2022-09-15T18:36:42.973Z,14.10
2022-09-15T18:42:29.916Z,13.70
2022-09-15T18:44:59.018Z,13.70
2022-09-15T18:47:26.311Z,13.70
2022-09-15T18:49:53.492Z,13.60
2022-09-15T18:52:20.620Z,13.60
2022-09-15T18:54:47.353Z,13.40
2022-09-15T18:57:14.167Z,13.60
2022-09-15T18:59:40.934Z,13.60
2022-09-15T19:07:12.140Z,12.80
2022-09-15T19:09:39.605Z,13.40
2022-09-15T19:12:06.497Z,13.30
2022-09-15T19:14:33.759Z,13.30
2022-09-15T19:17:00.663Z,13.30
2022-09-15T19:19:27.622Z,13.30
2022-09-15T19:21:54.412Z,12.90
2022-09-15T19:29:23.162Z,13.20
2022-09-15T19:31:50.186Z,13.20
2022-09-15T19:34:16.858Z,13.20
2022-09-15T19:36:43.681Z,13.20
2022-09-15T19:39:12.397Z,13.10
2022-09-15T19:41:39.539Z,13.10
2022-09-15T19:44:09.452Z,13.00
2022-09-15T19:51:43.320Z,13.00
2022-09-15T19:54:10.932Z,12.90
2022-09-15T19:56:38.223Z,11.30
2022-09-15T19:59:06.545Z,12.80
2022-09-15T20:01:34.336Z,12.80
2022-09-15T20:06:32.764Z,13.00
2022-09-15T20:09:00.746Z,13.30
2022-09-15T20:15:11.667Z,14.30
2022-09-15T20:17:41.130Z,13.30
2022-09-15T20:20:11.508Z,12.90
2022-09-15T20:22:38.337Z,12.60
2022-09-15T20:25:05.549Z,12.60
2022-09-15T20:27:33.218Z,12.50
2022-09-15T20:30:00.314Z,12.50
2022-09-15T20:37:37.505Z,12.50
2022-09-15T20:40:07.892Z,12.30
2022-09-15T20:42:36.447Z,12.30
2022-09-15T20:45:03.860Z,12.30
2022-09-15T20:47:30.814Z,12.30
2022-09-15T20:49:57.697Z,12.30
2022-09-15T20:52:29.216Z,12.20
2022-09-15T21:00:19.700Z,12.60
2022-09-15T21:02:51.454Z,12.10
2022-09-15T21:05:21.261Z,12.50
2022-09-15T21:07:53.479Z,12.10
2022-09-15T21:10:24.604Z,12.10
2022-09-15T21:12:51.453Z,11.30
2022-09-15T21:15:18.312Z,12.00
2022-09-15T21:22:53.708Z,12.00
2022-09-15T21:25:22.420Z,12.00
2022-09-15T21:27:50.183Z,11.90
2022-09-15T21:30:17.016Z,11.90
2022-09-15T21:32:44.323Z,10.90
2022-09-15T21:37:39.166Z,11.90
2022-09-15T21:45:13.790Z,11.80
2022-09-15T21:47:41.067Z,11.80
2022-09-15T21:50:11.599Z,11.80
2022-09-15T21:52:38.699Z,11.70
2022-09-15T21:55:06.194Z,11.50
2022-09-15T21:57:33.479Z,11.60
2022-09-15T22:00:00.310Z,11.50
2022-09-15T22:07:33.585Z,11.50
2022-09-15T22:10:00.255Z,8.60
2022-09-15T22:12:30.162Z,10.80
2022-09-15T22:14:57.634Z,12.20
2022-09-15T22:17:24.931Z,14.20
2022-09-15T22:19:52.044Z,13.30
2022-09-15T22:22:20.183Z,10.90
2022-09-15T22:29:02.548Z,11.20
2022-09-15T22:31:30.122Z,10.90
2022-09-15T22:33:57.114Z,11.10
2022-09-15T22:36:29.550Z,11.50
2022-09-15T22:39:03.353Z,11.00
2022-09-15T22:41:32.624Z,12.60
2022-09-15T22:43:59.412Z,11.00
2022-09-15T22:46:26.430Z,11.00
2022-09-15T22:53:46.587Z,11.10
2022-09-15T22:56:19.570Z,11.00
2022-09-15T22:58:49.112Z,11.00
2022-09-15T23:01:22.096Z,10.90
2022-09-15T23:03:55.138Z,10.90
2022-09-15T23:06:23.425Z,10.90
2022-09-15T23:08:56.805Z,10.90
2022-09-15T23:15:28.589Z,10.90
2022-09-15T23:17:55.440Z,10.10
2022-09-15T23:20:22.265Z,10.60
2022-09-15T23:22:49.099Z,11.00
2022-09-15T23:25:16.909Z,11.00
2022-09-15T23:27:43.928Z,11.00
2022-09-15T23:30:11.348Z,11.00
2022-09-15T23:38:04.306Z,10.90
2022-09-15T23:40:32.484Z,12.30
2022-09-15T23:42:59.511Z,10.90
2022-09-15T23:45:26.478Z,10.80
2022-09-15T23:47:53.628Z,10.80
2022-09-15T23:50:20.840Z,10.80
2022-09-15T23:52:47.619Z,11.00
2022-09-15T23:57:54.185Z,10.80
